Terminal Aerodrome Forecast
Issued by NWS Tampa Bay Area, FL

Home | Current Version | Previous Version | Text Only | Print | Product List | Glossary On
Versions: 1 2 3 4 5 6 7 8 9 10 11 12 13
194
FTUS42 KTBW 220539
TAFFMY
TAF
KFMY 220539Z 2206/2306 16008KT P6SM SCT005 BKN030 BKN080
      TEMPO 2209/2213 5SM BR BKN005
     FM221300 19012G20KT P6SM SCT005 BKN025
     FM221800 20020G30KT P6SM VCTS SCT010CB BKN025
     FM222000 22025G35KT P6SM TSRA SCT015CB OVC025=

USA.gov is the U.S. government's official web portal to all federal, state and local government web resources and services.